Cleveland, Ohio
Traffic Map
Current Weather Conditions
Cleveland, Ohio
Clear
Clear

Feels Like: 4°
Wind Chill: Ceiling: Unl
Heat Index: Visibility: 10mi
Dew Point: -4° Wind: 20mph
Humidity: 41% Direction: 200° (SSW)
Pressure: 30in Gusts: 26mph
Raw Report DataKBKL 201853Z 20017G23KT 10SM CLR 08/M04 A3000 RMK AO2 SLP163 T00831044 $
Traffic Incident Summary
Active as of:
Severity:
Category:
InformationThere was an issue retrieving the traffic information for this location. Please try a different location or try again shortly.
Advertisements